createdAt,value
2023-09-23T06:59:31.141Z,3692.00
2023-09-23T07:00:32.204Z,3420.00
2023-09-23T07:01:32.283Z,3912.00
2023-09-23T07:02:32.375Z,5052.00
2023-09-23T07:03:32.430Z,3796.00
2023-09-23T07:04:32.485Z,4308.00
2023-09-23T07:05:32.640Z,6200.00
2023-09-23T07:06:32.624Z,6604.00
2023-09-23T07:07:32.712Z,6832.00
2023-09-23T07:08:32.848Z,5648.00
2023-09-23T07:09:32.885Z,6300.00
2023-09-23T07:10:32.977Z,5692.00
2023-09-23T07:11:33.023Z,4980.00
2023-09-23T07:12:33.111Z,5328.00
2023-09-23T07:13:33.204Z,5288.00
2023-09-23T07:14:33.330Z,5856.00
2023-09-23T07:15:33.364Z,6232.00
2023-09-23T07:16:33.478Z,8116.00
2023-09-23T07:17:33.681Z,6700.00
2023-09-23T07:18:36.885Z,7636.00
2023-09-23T07:19:33.722Z,8620.00
2023-09-23T07:20:33.858Z,7680.00
2023-09-23T07:21:33.879Z,6668.00
2023-09-23T07:22:33.923Z,5936.00
2023-09-23T07:24:34.075Z,8932.00
2023-09-23T07:25:34.161Z,8136.00
2023-09-23T07:26:34.278Z,7076.00
2023-09-23T07:27:34.313Z,7536.00
2023-09-23T07:28:34.464Z,6632.00
2023-09-23T07:29:34.480Z,5700.00
2023-09-23T07:30:34.596Z,6936.00
2023-09-23T07:31:34.640Z,5960.00
2023-09-23T07:32:34.772Z,5204.00
2023-09-23T07:33:34.776Z,7500.00
2023-09-23T07:34:34.891Z,7160.00
2023-09-23T07:35:35.040Z,4768.00
2023-09-23T07:36:35.169Z,5028.00
2023-09-23T07:37:35.128Z,6012.00
2023-09-23T07:38:35.242Z,7560.00
2023-09-23T07:39:35.301Z,5480.00
2023-09-23T07:40:35.372Z,6372.00
2023-09-23T07:41:35.524Z,8028.00
2023-09-23T07:42:35.541Z,8540.00
2023-09-23T07:43:35.576Z,7044.00
2023-09-23T07:44:35.692Z,7316.00
2023-09-23T07:45:35.733Z,7020.00
2023-09-23T07:46:35.824Z,6528.00
2023-09-23T07:47:35.989Z,7636.00
2023-09-23T07:48:35.962Z,9060.00
2023-09-23T07:49:36.047Z,8932.00
2023-09-23T07:50:36.199Z,8656.00
2023-09-23T07:51:36.228Z,7452.00
2023-09-23T07:52:36.312Z,7552.00
2023-09-23T07:53:36.401Z,8760.00
2023-09-23T07:54:36.478Z,10204.00
2023-09-23T07:55:36.527Z,9444.00
2023-09-23T07:56:36.652Z,9912.00
2023-09-23T07:57:36.706Z,9468.00
2023-09-23T07:58:36.805Z,8184.00
2023-09-23T07:59:36.880Z,8200.00
2023-09-23T08:00:36.942Z,10704.00
2023-09-23T08:01:37.069Z,10260.00
2023-09-23T08:02:37.216Z,9600.00
2023-09-23T08:03:37.239Z,10536.00
2023-09-23T08:04:37.292Z,7960.00
2023-09-23T08:05:37.441Z,8424.00
2023-09-23T08:06:39.338Z,10084.00
2023-09-23T08:07:37.516Z,9564.00
2023-09-23T08:08:37.602Z,7876.00
2023-09-23T08:09:37.705Z,8124.00
2023-09-23T08:10:37.744Z,8916.00
2023-09-23T08:11:37.818Z,8748.00
2023-09-23T08:12:37.908Z,9864.00
2023-09-23T08:13:37.987Z,9188.00
2023-09-23T08:14:38.098Z,8184.00
2023-09-23T08:15:38.192Z,7708.00
2023-09-23T08:16:38.273Z,7804.00
2023-09-23T08:17:38.409Z,7328.00
2023-09-23T08:18:38.420Z,7148.00
2023-09-23T08:19:38.500Z,7748.00
2023-09-23T08:20:38.684Z,7436.00
2023-09-23T08:21:38.683Z,8348.00
2023-09-23T08:22:38.766Z,9492.00
2023-09-23T08:23:38.857Z,7916.00
2023-09-23T08:24:39.051Z,5960.00
2023-09-23T08:25:38.998Z,6268.00
2023-09-23T08:26:39.067Z,9208.00
2023-09-23T08:27:39.131Z,8064.00
2023-09-23T08:28:39.211Z,7288.00
2023-09-23T08:29:39.304Z,6524.00
2023-09-23T08:30:39.360Z,7680.00
2023-09-23T08:31:39.474Z,7656.00
2023-09-23T08:32:39.611Z,8856.00
2023-09-23T08:33:39.627Z,9280.00
2023-09-23T08:34:39.728Z,8696.00
2023-09-23T08:35:39.851Z,6992.00
2023-09-23T08:36:39.895Z,5984.00
2023-09-23T08:37:39.977Z,7616.00
2023-09-23T08:38:40.043Z,8356.00
2023-09-23T08:39:40.134Z,6400.00
2023-09-23T08:40:40.210Z,6688.00
2023-09-23T08:41:40.293Z,7608.00
2023-09-23T08:42:40.381Z,7796.00
2023-09-23T08:43:40.465Z,6200.00
2023-09-23T08:44:40.647Z,5520.00
2023-09-23T08:45:40.701Z,9412.00
2023-09-23T08:46:40.722Z,9192.00
2023-09-23T08:47:40.902Z,6808.00
2023-09-23T08:48:40.891Z,5896.00
2023-09-23T08:49:41.049Z,6432.00
2023-09-23T08:50:41.046Z,7624.00
2023-09-23T08:51:41.140Z,9176.00
2023-09-23T08:52:41.285Z,8908.00
2023-09-23T08:53:41.316Z,8152.00
2023-09-23T08:54:41.407Z,7476.00
2023-09-23T08:55:41.497Z,6928.00
2023-09-23T08:56:41.560Z,7480.00
2023-09-23T08:57:41.641Z,8812.00
2023-09-23T08:58:41.731Z,9128.00
2023-09-23T08:59:41.846Z,9280.00
2023-09-23T09:00:41.900Z,6932.00
2023-09-23T09:01:42.065Z,4928.00
2023-09-23T09:02:42.154Z,4280.00
2023-09-23T09:03:42.148Z,4260.00
2023-09-23T09:04:42.260Z,3904.00
2023-09-23T09:05:42.531Z,4032.00
2023-09-23T09:06:42.400Z,4432.00
2023-09-23T09:07:42.472Z,5688.00
2023-09-23T09:08:42.565Z,5356.00
2023-09-23T09:09:42.675Z,5472.00
2023-09-23T09:10:42.798Z,5908.00
2023-09-23T09:11:42.863Z,5612.00
2023-09-23T09:12:42.892Z,5228.00
2023-09-23T09:13:42.966Z,5260.00
2023-09-23T09:14:43.041Z,7000.00
2023-09-23T09:15:43.220Z,8328.00
2023-09-23T09:16:43.179Z,7524.00
2023-09-23T09:17:43.305Z,5196.00
2023-09-23T09:18:43.325Z,4648.00
2023-09-23T09:19:43.399Z,3996.00
2023-09-23T09:20:43.486Z,4992.00
2023-09-23T09:21:43.570Z,9164.00
2023-09-23T09:22:43.662Z,11896.00
2023-09-23T09:23:43.759Z,12460.00
2023-09-23T09:24:43.820Z,13328.00
2023-09-23T09:25:43.919Z,14580.00
2023-09-23T09:26:43.978Z,15492.00
2023-09-23T09:27:44.050Z,14540.00
2023-09-23T09:28:44.159Z,14948.00
2023-09-23T09:29:44.240Z,14668.00
2023-09-23T09:30:44.360Z,12480.00
2023-09-23T09:31:44.483Z,10552.00
2023-09-23T09:32:44.864Z,12140.00
2023-09-23T09:33:44.562Z,11160.00
2023-09-23T09:34:44.635Z,12440.00
2023-09-23T09:35:44.750Z,14288.00
2023-09-23T09:36:44.811Z,13780.00
2023-09-23T09:37:44.916Z,18688.00
2023-09-23T09:38:45.285Z,19008.00
2023-09-23T09:39:45.092Z,19264.00
2023-09-23T09:40:45.218Z,16576.00
2023-09-23T09:41:45.259Z,13632.00
2023-09-23T09:42:45.339Z,14612.00
2023-09-23T09:43:45.425Z,15052.00
2023-09-23T09:44:45.518Z,14308.00
2023-09-23T09:45:45.769Z,16320.00
2023-09-23T09:46:45.720Z,19488.00
2023-09-23T09:47:45.868Z,20064.00
2023-09-23T09:48:46.964Z,22816.00
2023-09-23T09:49:46.154Z,20256.00
2023-09-23T09:50:46.304Z,16672.00
2023-09-23T09:51:46.123Z,16608.00
2023-09-23T09:52:46.174Z,19904.00
2023-09-23T09:53:46.246Z,17504.00
2023-09-23T09:54:46.302Z,16416.00
2023-09-23T09:55:46.385Z,17824.00
2023-09-23T09:56:46.513Z,13556.00
2023-09-23T09:57:46.576Z,13120.00
2023-09-23T09:58:46.838Z,11244.00
2023-09-23T09:59:46.757Z,9488.00
2023-09-23T10:00:46.905Z,9912.00
2023-09-23T10:01:46.932Z,10604.00
2023-09-23T10:02:47.173Z,11424.00
2023-09-23T10:03:47.318Z,14464.00
2023-09-23T10:04:47.187Z,13656.00
2023-09-23T10:05:47.266Z,15188.00
2023-09-23T10:06:47.582Z,17824.00
2023-09-23T10:07:47.539Z,18528.00
2023-09-23T10:08:47.861Z,19232.00
2023-09-23T10:09:47.608Z,22336.00
2023-09-23T10:10:47.743Z,20416.00
2023-09-23T10:11:47.788Z,19680.00
2023-09-23T10:12:47.871Z,20416.00
2023-09-23T10:13:47.950Z,16384.00
2023-09-23T10:14:48.018Z,15064.00
2023-09-23T10:15:48.107Z,13948.00
2023-09-23T10:16:48.236Z,19456.00
2023-09-23T10:17:48.449Z,16256.00
2023-09-23T10:18:48.663Z,14384.00
2023-09-23T10:19:48.407Z,17856.00
2023-09-23T10:20:48.470Z,15180.00
2023-09-23T10:21:48.605Z,19200.00
2023-09-23T10:22:48.638Z,17632.00
2023-09-23T10:23:48.794Z,14440.00
2023-09-23T10:24:48.812Z,17920.00
2023-09-23T10:25:48.908Z,26816.00
2023-09-23T10:26:49.006Z,21728.00
2023-09-23T10:27:49.078Z,17152.00
2023-09-23T10:28:49.153Z,15488.00
2023-09-23T10:29:49.281Z,15456.00
2023-09-23T10:30:49.302Z,22944.00
2023-09-23T10:31:49.349Z,23424.00
2023-09-23T10:32:49.593Z,34752.00
2023-09-23T10:33:49.751Z,77536.00
2023-09-23T10:34:49.661Z,26912.00
2023-09-23T10:35:49.673Z,20960.00
2023-09-23T10:36:49.756Z,21248.00
2023-09-23T10:37:49.863Z,19776.00
2023-09-23T10:38:49.908Z,64512.00
2023-09-23T10:39:49.987Z,11368.00
2023-09-23T10:40:50.077Z,16896.00
2023-09-23T10:41:50.161Z,11048.00
2023-09-23T10:42:50.401Z,14672.00
2023-09-23T10:43:50.325Z,27680.00
2023-09-23T10:44:50.417Z,16928.00
2023-09-23T10:45:50.491Z,24704.00
2023-09-23T10:46:50.554Z,64704.00
2023-09-23T10:47:50.668Z,19904.00
2023-09-23T10:48:50.715Z,9808.00
2023-09-23T10:49:52.106Z,12512.00
2023-09-23T10:50:50.877Z,66304.00
2023-09-23T10:51:50.971Z,16056.00
2023-09-23T10:52:51.089Z,68480.00
2023-09-23T10:53:51.172Z,10876.00
2023-09-23T10:54:51.232Z,63808.00
2023-09-23T10:55:51.311Z,11420.00
2023-09-23T10:56:51.382Z,66784.00
2023-09-23T10:57:51.511Z,12708.00
2023-09-23T10:58:51.620Z,17952.00
2023-09-23T10:59:51.663Z,22944.00
2023-09-23T11:00:51.781Z,19520.00
2023-09-23T11:01:51.916Z,19040.00
2023-09-23T11:02:52.193Z,16192.00
2023-09-23T11:03:52.065Z,13324.00
2023-09-23T11:04:52.091Z,69504.00
2023-09-23T11:05:52.162Z,32160.00
2023-09-23T11:06:52.276Z,32800.00
2023-09-23T11:07:52.344Z,19584.00
2023-09-23T11:08:52.442Z,22368.00
2023-09-23T11:09:52.503Z,17184.00
2023-09-23T11:10:52.624Z,26400.00
2023-09-23T11:11:52.700Z,16640.00
2023-09-23T11:12:52.807Z,12060.00
2023-09-23T11:13:52.897Z,11128.00
2023-09-23T11:14:52.957Z,12592.00
2023-09-23T11:15:53.024Z,14868.00
2023-09-23T11:16:53.093Z,15872.00
2023-09-23T11:17:53.184Z,14180.00
2023-09-23T11:18:53.257Z,12084.00
2023-09-23T11:19:53.312Z,11516.00
2023-09-23T11:20:53.401Z,16736.00
2023-09-23T11:21:53.514Z,34432.00
2023-09-23T11:22:53.551Z,29184.00
2023-09-23T11:23:53.638Z,36800.00
2023-09-23T11:24:53.705Z,30976.00
2023-09-23T11:25:53.797Z,74880.00
2023-09-23T11:26:53.861Z,21600.00
2023-09-23T11:27:53.964Z,16896.00
2023-09-23T11:28:54.046Z,13484.00
2023-09-23T11:29:54.112Z,12444.00
2023-09-23T11:30:54.186Z,19360.00
2023-09-23T11:31:54.269Z,16128.00
2023-09-23T11:32:54.377Z,14336.00
2023-09-23T11:33:54.434Z,14508.00
2023-09-23T11:34:54.522Z,11736.00
2023-09-23T11:35:54.665Z,9224.00
2023-09-23T11:36:54.677Z,7884.00
2023-09-23T11:37:54.771Z,7048.00
2023-09-23T11:38:54.852Z,6244.00
2023-09-23T11:39:54.930Z,5752.00
2023-09-23T11:40:55.006Z,6272.00
2023-09-23T11:41:55.093Z,7796.00
2023-09-23T11:42:55.190Z,11564.00
2023-09-23T11:43:55.435Z,15456.00
2023-09-23T11:44:55.356Z,15904.00
2023-09-23T11:45:55.428Z,15228.00
2023-09-23T11:46:55.832Z,11820.00
2023-09-23T11:47:55.601Z,9236.00
2023-09-23T11:48:55.693Z,10932.00
2023-09-23T11:49:55.898Z,15328.00
2023-09-23T11:50:55.827Z,20288.00
2023-09-23T11:51:55.930Z,23200.00
2023-09-23T11:52:56.052Z,22112.00
2023-09-23T11:53:56.161Z,18368.00
2023-09-23T11:54:56.169Z,20064.00
2023-09-23T11:55:56.210Z,16192.00
2023-09-23T11:56:56.328Z,15648.00
2023-09-23T11:57:56.387Z,17312.00
2023-09-23T11:59:07.916Z,15936.00
2023-09-23T11:59:56.589Z,15872.00
2023-09-23T12:00:56.632Z,14876.00
2023-09-23T12:01:56.769Z,13684.00
2023-09-23T12:02:57.009Z,13388.00
2023-09-23T12:03:57.022Z,13396.00
2023-09-23T12:04:57.082Z,12068.00
2023-09-23T12:05:57.114Z,9616.00
2023-09-23T12:06:57.222Z,8176.00
2023-09-23T12:07:57.208Z,8816.00
2023-09-23T12:08:57.282Z,9544.00
2023-09-23T12:09:57.368Z,9312.00
2023-09-23T12:10:57.460Z,9176.00
2023-09-23T12:11:57.567Z,8108.00
2023-09-23T12:12:57.631Z,6712.00
2023-09-23T12:13:57.717Z,8120.00
2023-09-23T12:14:57.780Z,8468.00
2023-09-23T12:15:57.868Z,7736.00
2023-09-23T12:16:57.992Z,6952.00
2023-09-23T12:17:58.171Z,6716.00
2023-09-23T12:18:58.084Z,8352.00
2023-09-23T12:19:58.217Z,10052.00
2023-09-23T12:20:58.235Z,11336.00
2023-09-23T12:21:58.384Z,12424.00
2023-09-23T12:22:58.637Z,13052.00
2023-09-23T12:23:58.481Z,15004.00
2023-09-23T12:24:58.578Z,15712.00
2023-09-23T12:25:58.712Z,15412.00
2023-09-23T12:26:58.692Z,13840.00
2023-09-23T12:27:59.770Z,13620.00
2023-09-23T12:28:58.836Z,13232.00
2023-09-23T12:29:58.878Z,13964.00
2023-09-23T12:30:58.983Z,15036.00
2023-09-23T12:31:59.061Z,14228.00
2023-09-23T12:32:59.147Z,12540.00
2023-09-23T12:33:59.234Z,12380.00
2023-09-23T12:34:59.326Z,12368.00
2023-09-23T12:35:59.356Z,15872.00
2023-09-23T12:36:59.465Z,18304.00
2023-09-23T12:37:59.587Z,18336.00
2023-09-23T12:38:59.651Z,19520.00
2023-09-23T12:39:59.771Z,20448.00
2023-09-23T12:40:59.839Z,18848.00
2023-09-23T12:41:59.881Z,17344.00
2023-09-23T12:43:00.127Z,31872.00
2023-09-23T12:44:00.057Z,39200.00
2023-09-23T12:45:01.235Z,50624.00
2023-09-23T12:46:00.294Z,27488.00
2023-09-23T12:47:00.328Z,25568.00
2023-09-23T12:48:00.554Z,23712.00
2023-09-23T12:49:00.549Z,22304.00
2023-09-23T12:50:01.354Z,22176.00
2023-09-23T12:51:00.638Z,22464.00
2023-09-23T12:52:00.712Z,23584.00
2023-09-23T12:53:00.837Z,26272.00
2023-09-23T12:54:00.933Z,22496.00
2023-09-23T12:55:01.004Z,21152.00
2023-09-23T12:56:01.152Z,18336.00
2023-09-23T12:57:01.202Z,15156.00
2023-09-23T12:58:01.336Z,12228.00
2023-09-23T12:59:01.444Z,12776.00
2023-09-23T13:00:01.522Z,15112.00
2023-09-23T13:01:01.573Z,17568.00
2023-09-23T13:02:01.645Z,20000.00
2023-09-23T13:03:01.796Z,22400.00
2023-09-23T13:04:01.901Z,22432.00
2023-09-23T13:05:01.931Z,22720.00
2023-09-23T13:06:02.035Z,21152.00
2023-09-23T13:07:02.044Z,20352.00
2023-09-23T13:08:02.156Z,18944.00
2023-09-23T13:09:02.223Z,15872.00
2023-09-23T13:10:02.299Z,13036.00
2023-09-23T13:11:02.442Z,16224.00
2023-09-23T13:12:02.445Z,21408.00
2023-09-23T13:13:02.519Z,23872.00
2023-09-23T13:14:02.622Z,24896.00
2023-09-23T13:15:02.716Z,22432.00
2023-09-23T13:16:02.913Z,19232.00
2023-09-23T13:17:02.932Z,16352.00
2023-09-23T13:18:02.916Z,15776.00
2023-09-23T13:19:03.061Z,16192.00
2023-09-23T13:20:03.113Z,15680.00
2023-09-23T13:21:03.194Z,12568.00
2023-09-23T13:22:03.250Z,9904.00
2023-09-23T13:23:04.067Z,8468.00
2023-09-23T13:24:03.393Z,8224.00
2023-09-23T13:25:03.586Z,8424.00
2023-09-23T13:26:03.662Z,9112.00
2023-09-23T13:27:03.614Z,9164.00
2023-09-23T13:28:03.697Z,8640.00
2023-09-23T13:29:03.800Z,7972.00
2023-09-23T13:30:03.885Z,8612.00
2023-09-23T13:31:03.997Z,9320.00
2023-09-23T13:32:04.049Z,10120.00
2023-09-23T13:33:04.199Z,11260.00
2023-09-23T13:34:07.059Z,12096.00
2023-09-23T13:35:04.339Z,12632.00
2023-09-23T13:36:04.381Z,13328.00
2023-09-23T13:37:04.446Z,14576.00
2023-09-23T13:38:04.539Z,15712.00
2023-09-23T13:39:04.589Z,15680.00
2023-09-23T13:40:04.695Z,14764.00
2023-09-23T13:41:04.804Z,13132.00
2023-09-23T13:42:04.865Z,11264.00
2023-09-23T13:43:04.977Z,9700.00
2023-09-23T13:44:05.066Z,8752.00
2023-09-23T13:45:05.121Z,7832.00
2023-09-23T13:46:05.253Z,6924.00
2023-09-23T13:47:05.409Z,5688.00
2023-09-23T13:48:05.518Z,4424.00
2023-09-23T13:49:05.438Z,3332.00
2023-09-23T13:50:05.575Z,2684.00
2023-09-23T13:51:08.143Z,2340.00
2023-09-23T13:52:05.712Z,2244.00
2023-09-23T13:53:05.849Z,2264.00
2023-09-23T13:54:05.881Z,2240.00
2023-09-23T13:55:05.953Z,2316.00
2023-09-23T13:56:06.066Z,2848.00
2023-09-23T13:57:06.117Z,3320.00
2023-09-23T13:58:06.212Z,3668.00
2023-09-23T13:59:06.337Z,3884.00
2023-09-23T14:00:06.382Z,4044.00
2023-09-23T14:01:06.520Z,4164.00
2023-09-23T14:02:06.583Z,4256.00
2023-09-23T14:03:06.666Z,4344.00
2023-09-23T14:04:06.739Z,4464.00
2023-09-23T14:05:06.823Z,4804.00
2023-09-23T14:06:06.891Z,5268.00
2023-09-23T14:07:06.931Z,5628.00
2023-09-23T14:08:07.025Z,5764.00
2023-09-23T14:09:07.088Z,6532.00
2023-09-23T14:10:20.630Z,7036.00
2023-09-23T14:11:07.366Z,6752.00
2023-09-23T14:12:07.327Z,5404.00
2023-09-23T14:13:07.407Z,4480.00
2023-09-23T14:14:07.504Z,3676.00
2023-09-23T14:15:07.573Z,3128.00
2023-09-23T14:16:07.699Z,3292.00
2023-09-23T14:17:07.747Z,3920.00
2023-09-23T14:18:09.133Z,4768.00
2023-09-23T14:19:07.986Z,5844.00
2023-09-23T14:20:07.999Z,7116.00
2023-09-23T14:21:08.072Z,8360.00
2023-09-23T14:22:08.154Z,8960.00
2023-09-23T14:23:08.310Z,8932.00
2023-09-23T14:24:08.327Z,9336.00
2023-09-23T14:25:08.392Z,10808.00
2023-09-23T14:26:08.559Z,13056.00
2023-09-23T14:27:08.590Z,13572.00
2023-09-23T14:28:08.685Z,12248.00
2023-09-23T14:29:08.762Z,10920.00
2023-09-23T14:30:08.811Z,10116.00
2023-09-23T14:31:08.970Z,8520.00
2023-09-23T14:32:09.011Z,7160.00
2023-09-23T14:33:09.111Z,5996.00
2023-09-23T14:34:09.143Z,4724.00
2023-09-23T14:35:09.247Z,3744.00
2023-09-23T14:36:09.302Z,2700.00
2023-09-23T14:37:09.385Z,2188.00
2023-09-23T14:38:09.498Z,1948.00
2023-09-23T14:39:09.539Z,1820.00
2023-09-23T14:40:09.615Z,1628.00
2023-09-23T14:41:10.023Z,1664.00
2023-09-23T14:42:09.789Z,1888.00
2023-09-23T14:43:09.871Z,2240.00
2023-09-23T14:44:10.001Z,3752.00
2023-09-23T14:45:10.074Z,6360.00
2023-09-23T14:46:10.175Z,9116.00
2023-09-23T14:47:10.250Z,12364.00
2023-09-23T14:48:10.329Z,15004.00
2023-09-23T14:49:10.365Z,16224.00
2023-09-23T14:50:10.475Z,16128.00
2023-09-23T14:51:10.524Z,14840.00
2023-09-23T14:52:10.607Z,13104.00
2023-09-23T14:53:10.733Z,10856.00
2023-09-23T14:54:10.748Z,9332.00
2023-09-23T14:55:10.847Z,8136.00
2023-09-23T14:56:10.973Z,7264.00
2023-09-23T14:57:11.009Z,6192.00
2023-09-23T14:58:11.085Z,4944.00
2023-09-23T14:59:11.232Z,3960.00
2023-09-23T15:00:11.261Z,3452.00
2023-09-23T15:01:11.359Z,3692.00
2023-09-23T15:02:11.471Z,4224.00
2023-09-23T15:03:11.584Z,4432.00
2023-09-23T15:04:11.724Z,4912.00
2023-09-23T15:05:11.702Z,4720.00
2023-09-23T15:06:11.719Z,4328.00
2023-09-23T15:07:11.835Z,3980.00
2023-09-23T15:08:11.901Z,4824.00
2023-09-23T15:09:11.988Z,5968.00
2023-09-23T15:10:12.086Z,4580.00
2023-09-23T15:11:12.138Z,2852.00
2023-09-23T15:12:12.201Z,2172.00
2023-09-23T15:13:12.289Z,2732.00
2023-09-23T15:14:12.438Z,3780.00
2023-09-23T15:15:12.457Z,4488.00
2023-09-23T15:16:12.559Z,5100.00
2023-09-23T15:17:12.588Z,5244.00
2023-09-23T15:18:12.720Z,5636.00
2023-09-23T15:19:12.746Z,5764.00
2023-09-23T15:20:12.854Z,5760.00
2023-09-23T15:21:12.900Z,5684.00
2023-09-23T15:22:12.977Z,5532.00
2023-09-23T15:23:13.084Z,5008.00
2023-09-23T15:24:13.128Z,4020.00
2023-09-23T15:25:13.217Z,2864.00
2023-09-23T15:26:13.343Z,1812.00
2023-09-23T15:27:13.372Z,1480.00
2023-09-23T15:28:13.444Z,2136.00
2023-09-23T15:29:13.545Z,2996.00
2023-09-23T15:30:13.638Z,3592.00
2023-09-23T15:31:13.740Z,3584.00
2023-09-23T15:32:13.865Z,3516.00
2023-09-23T15:33:14.000Z,3836.00
2023-09-23T15:34:14.014Z,3840.00
2023-09-23T15:35:14.091Z,3704.00
2023-09-23T15:36:14.170Z,3604.00
2023-09-23T15:37:14.205Z,3940.00
2023-09-23T15:38:14.380Z,5048.00
2023-09-23T15:39:14.381Z,5732.00
2023-09-23T15:40:14.476Z,6128.00
2023-09-23T15:41:14.578Z,6464.00
2023-09-23T15:42:14.648Z,6656.00
2023-09-23T15:43:14.750Z,6840.00
2023-09-23T15:44:14.842Z,7092.00
2023-09-23T15:45:14.916Z,7652.00
2023-09-23T15:46:15.039Z,7364.00
2023-09-23T15:47:15.084Z,7384.00
2023-09-23T15:48:15.250Z,7284.00
2023-09-23T15:49:15.264Z,7712.00
2023-09-23T15:50:15.382Z,8300.00
2023-09-23T15:51:15.406Z,8176.00
2023-09-23T15:52:15.504Z,7796.00
2023-09-23T15:53:15.621Z,7436.00
2023-09-23T15:54:15.636Z,7200.00
2023-09-23T15:55:15.709Z,7248.00
2023-09-23T15:56:15.820Z,7280.00
2023-09-23T15:57:15.883Z,7200.00
2023-09-23T15:58:15.986Z,6964.00
2023-09-23T15:59:16.046Z,6480.00
2023-09-23T16:00:16.132Z,6056.00
2023-09-23T16:01:16.228Z,5884.00
2023-09-23T16:02:16.379Z,5628.00
2023-09-23T16:03:16.757Z,5356.00
2023-09-23T16:04:16.578Z,5016.00
2023-09-23T16:05:16.684Z,4788.00
2023-09-23T16:06:16.663Z,4760.00
2023-09-23T16:07:16.742Z,4592.00
2023-09-23T16:08:16.877Z,4500.00
2023-09-23T16:09:16.920Z,4228.00
2023-09-23T16:10:17.020Z,4012.00
2023-09-23T16:11:17.138Z,3876.00
2023-09-23T16:12:17.199Z,3780.00
2023-09-23T16:13:17.275Z,3652.00
2023-09-23T16:14:17.407Z,3420.00
2023-09-23T16:15:17.420Z,3224.00
2023-09-23T16:16:17.596Z,3024.00
2023-09-23T16:17:17.724Z,2868.00
2023-09-23T16:18:20.021Z,2752.00
2023-09-23T16:19:17.782Z,2644.00
2023-09-23T16:20:17.914Z,2512.00
2023-09-23T16:21:17.937Z,2352.00
2023-09-23T16:22:18.004Z,2196.00
2023-09-23T16:23:18.169Z,2092.00
2023-09-23T16:24:18.216Z,2060.00
2023-09-23T16:25:18.305Z,2028.00
2023-09-23T16:26:18.345Z,1996.00
2023-09-23T16:27:18.384Z,1976.00
2023-09-23T16:28:18.489Z,1944.00
2023-09-23T16:29:18.579Z,1864.00
2023-09-23T16:30:18.673Z,1744.00
2023-09-23T16:31:18.771Z,1624.00
2023-09-23T16:32:18.787Z,1528.00
2023-09-23T16:33:18.878Z,1480.00
2023-09-23T16:34:18.924Z,1456.00
2023-09-23T16:35:19.042Z,1424.00
2023-09-23T16:36:19.104Z,1400.00
2023-09-23T16:37:19.171Z,1384.00
2023-09-23T16:38:19.294Z,1360.00
2023-09-23T16:39:19.326Z,1332.00
2023-09-23T16:40:19.459Z,1300.00
2023-09-23T16:41:19.820Z,1244.00
2023-09-23T16:42:19.597Z,1152.00
2023-09-23T16:43:19.663Z,1036.00
2023-09-23T16:44:19.774Z,928.00
2023-09-23T16:45:19.853Z,832.00
2023-09-23T16:46:19.980Z,768.00
2023-09-23T16:47:20.070Z,732.00
2023-09-23T16:48:20.159Z,732.00
2023-09-23T16:49:20.150Z,764.00
2023-09-23T16:50:20.280Z,832.00
2023-09-23T16:51:20.339Z,908.00
2023-09-23T16:52:20.402Z,976.00
2023-09-23T16:53:20.558Z,1032.00
2023-09-23T16:54:20.547Z,1076.00
2023-09-23T16:55:20.633Z,1088.00
2023-09-23T16:56:20.816Z,1040.00
2023-09-23T16:57:20.786Z,992.00
2023-09-23T16:58:20.865Z,952.00
2023-09-23T16:59:20.985Z,936.00
2023-09-23T17:00:21.030Z,948.00
2023-09-23T17:01:21.280Z,948.00
2023-09-23T17:02:21.289Z,932.00
2023-09-23T17:03:21.368Z,920.00
2023-09-23T17:04:21.365Z,904.00
2023-09-23T17:05:21.469Z,880.00
2023-09-23T17:06:22.953Z,852.00
2023-09-23T17:07:21.553Z,820.00
2023-09-23T17:08:21.681Z,792.00
2023-09-23T17:09:21.729Z,760.00
2023-09-23T17:10:21.757Z,744.00
2023-09-23T17:11:21.900Z,728.00
2023-09-23T17:12:21.960Z,700.00
2023-09-23T17:13:22.024Z,664.00
2023-09-23T17:14:22.116Z,624.00
2023-09-23T17:15:22.269Z,584.00
2023-09-23T17:16:22.352Z,544.00
2023-09-23T17:17:22.526Z,504.00
2023-09-23T17:18:22.523Z,472.00
2023-09-23T17:19:22.557Z,440.00
2023-09-23T17:20:22.669Z,412.00
2023-09-23T17:21:22.830Z,372.00
2023-09-23T17:22:22.813Z,332.00
2023-09-23T17:23:22.908Z,292.00
2023-09-23T17:24:22.983Z,264.00
2023-09-23T17:25:23.102Z,236.00
2023-09-23T17:26:23.228Z,212.00
2023-09-23T17:27:23.274Z,188.00
2023-09-23T17:28:23.329Z,168.00
2023-09-23T17:29:23.434Z,144.00
2023-09-23T17:30:23.501Z,132.00
2023-09-23T17:31:23.609Z,116.00
2023-09-23T17:32:23.724Z,104.00
2023-09-23T17:33:23.859Z,92.00
2023-09-23T17:34:23.879Z,80.00
2023-09-23T17:35:23.938Z,72.00
2023-09-23T17:36:24.042Z,60.00
2023-09-23T17:37:24.098Z,52.00
2023-09-23T17:38:24.213Z,44.00
2023-09-23T17:39:24.261Z,40.00
2023-09-23T17:40:24.297Z,32.00
2023-09-23T17:41:24.420Z,28.00
2023-09-23T17:42:24.494Z,20.00
2023-09-23T17:43:24.627Z,16.00
2023-09-23T17:44:24.673Z,16.00
2023-09-23T17:45:24.738Z,12.00
2023-09-23T17:46:24.860Z,8.00
2023-09-23T17:47:24.982Z,8.00
2023-09-23T17:48:25.036Z,8.00
2023-09-23T17:49:25.034Z,4.00
2023-09-23T17:50:25.206Z,4.00
2023-09-23T17:51:25.200Z,4.00
2023-09-23T17:52:25.287Z,4.00
2023-09-23T17:53:25.417Z,0.00
2023-09-23T17:54:25.463Z,4.00
2023-09-23T17:55:25.505Z,4.00
2023-09-23T17:56:25.660Z,0.00
2023-09-23T17:57:25.669Z,0.00
2023-09-23T17:58:25.747Z,0.00
2023-09-23T17:59:25.834Z,0.00
2023-09-23T18:00:25.909Z,0.00
2023-09-23T18:01:26.028Z,0.00
2023-09-23T18:02:26.257Z,0.00
2023-09-23T18:03:26.340Z,0.00
2023-09-23T18:04:26.425Z,0.00
2023-09-23T18:05:26.347Z,0.00
2023-09-23T18:06:26.401Z,0.00
2023-09-23T18:07:26.486Z,0.00
2023-09-23T18:08:26.605Z,0.00
2023-09-23T18:09:26.662Z,0.00
2023-09-23T18:10:26.728Z,0.00
2023-09-23T18:11:26.839Z,0.00
2023-09-23T18:12:26.931Z,0.00
2023-09-23T18:13:26.971Z,0.00
2023-09-23T18:14:27.072Z,0.00
2023-09-23T18:15:27.095Z,0.00
2023-09-23T18:16:27.227Z,0.00
2023-09-23T18:17:27.414Z,0.00
2023-09-23T18:18:27.397Z,0.00
2023-09-23T18:19:27.419Z,0.00
2023-09-23T18:20:27.556Z,0.00
2023-09-23T18:21:27.564Z,0.00
2023-09-23T18:22:27.677Z,0.00
2023-09-23T18:23:27.962Z,0.00
2023-09-23T18:24:27.890Z,0.00
2023-09-23T18:25:27.879Z,0.00
2023-09-23T18:26:27.984Z,0.00
2023-09-23T18:27:28.184Z,0.00
2023-09-23T18:28:28.138Z,0.00
2023-09-23T18:29:28.251Z,0.00
2023-09-23T18:30:28.294Z,0.00
2023-09-23T18:31:28.387Z,0.00
2023-09-23T18:32:28.548Z,0.00
2023-09-23T18:33:28.680Z,0.00
2023-09-23T18:34:28.722Z,0.00
2023-09-23T18:35:28.808Z,0.00
2023-09-23T18:36:28.814Z,0.00
2023-09-23T18:37:28.868Z,0.00
2023-09-23T18:38:29.009Z,0.00
2023-09-23T18:39:29.055Z,0.00
2023-09-23T18:40:29.112Z,0.00
2023-09-23T18:41:29.207Z,0.00
2023-09-23T18:42:29.272Z,0.00
2023-09-23T18:43:29.364Z,0.00
2023-09-23T18:44:29.518Z,0.00
2023-09-23T18:45:29.572Z,0.00
2023-09-23T18:46:29.597Z,0.00
2023-09-23T18:47:29.757Z,0.00
2023-09-23T18:48:32.712Z,0.00
2023-09-23T18:49:29.850Z,0.00
2023-09-23T18:50:29.986Z,0.00
2023-09-23T18:51:29.996Z,0.00
2023-09-23T18:52:30.058Z,0.00
2023-09-23T18:53:30.175Z,0.00
2023-09-23T18:54:30.225Z,0.00
2023-09-23T18:55:30.333Z,0.00
2023-09-23T18:56:30.402Z,0.00
2023-09-23T18:57:30.465Z,0.00
2023-09-23T18:58:30.551Z,0.00
